Detalii statie REFDANCOM [00001D06]

Toti senzorii

Date Temperatura solului [C]Precipitatii [mm]Voltaj baterie [mV]Leaf Wetness [Min]HC Air temperature [C]HC Relative humidity [%]Punctul de roua [C]
medieminmaxsumaultimatimpmedieminmaxmediemediemin
2019-04-19 20:00:00 0 6668 9.45 8.82 10.44 0 0 0
2019-04-19 21:00:00 0.2 6668 8.85 8.38 9.62 0 0 0
2019-04-19 22:00:00 0 6650 8.98 8.3 9.67 0 0 0
2019-04-19 23:00:00 0 6660 7.69 7.18 8.13 0 0 0
2019-04-20 00:00:00 0 6660 7.07 6 7.91 0 0 0
2019-04-20 01:00:00 0 6650 6.68 6.2 6.88 0 0 0
2019-04-20 02:00:00 0 6650 6.39 6.23 6.65 0 0 0
2019-04-20 03:00:00 0 6640 5.52 5.19 5.96 0 0 0
2019-04-20 04:00:00 0 6640 4.87 4.23 5.31 0 0 0
2019-04-20 05:00:00 0 6620 3.97 3.26 4.29 1.99 -10.5 0
2019-04-20 06:00:00 0 6640 3.52 2.88 4.01 7.03 -30.5 -37.9
2019-04-20 07:00:00 0 6688 3.87 2.98 5.54 12.64 -23.6 -32.9
2019-04-20 08:00:00 0 6738 6.67 5.47 8.06 13.21 -14.9 0
2019-04-20 09:00:00 0 6874 8.2 6.8 9.25 0 0 0
2019-04-20 10:00:00 0 7226 10.77 8.95 12.4 0 0 0
2019-04-20 11:00:00 0 7226 13.04 11.87 14.55 0 0 0
2019-04-20 12:00:00 0 7226 14.71 13.58 15.44 0 0 0
2019-04-20 13:00:00 0 7226 14.89 13.55 16.4 0 0 0
2019-04-20 14:00:00 0 6942 14.83 13.87 15.94 0 0 0
2019-04-20 15:00:00 0 6942 15.4 13.87 16.47 0 0 0
2019-04-20 16:00:00 0 7226 15.6 13.83 18.02 0 0 0
2019-04-20 17:00:00 0 7226 16.5 15.7 17.38 0 0 0
2019-04-20 18:00:00 0 6894 15.44 14.84 16.06 0 0 0
2019-04-20 19:00:00 0 6718 13.03 11.46 14.59 0 0 0
2019-04-20 20:00:00 0 6678 9.45 7.84 11.55 0 0 0
2019-04-20 21:00:00 0 6660 7.19 6.76 7.75 0 0 0
2019-04-20 22:00:00 0 6650 8 7.26 8.61 0 0 0
2019-04-20 23:00:00 0 6660 6.65 6.45 6.87 0 0 0
2019-04-21 00:00:00 0 6640 6.12 5.52 6.65 0 0 0
2019-04-21 01:00:00 0 6640 5.69 5.37 5.98 0 0 0
2019-04-21 02:00:00 0 6640 4.75 4.43 5.43 0 0 0
2019-04-21 03:00:00 0 6640 4.1 3.99 4.3 0 0 0
2019-04-21 04:00:00 0 6630 3.68 3.34 3.95 0 0 0
2019-04-21 05:00:00 0 6630 3.22 2.77 3.63 0 0 0
2019-04-21 06:00:00 0 6640 3.21 2.9 3.53 0 0 0
2019-04-21 07:00:00 0 6688 5.12 3.72 7 0 0 0
2019-04-21 08:00:00 0 6738 8.13 6.79 9.81 0 0 0
2019-04-21 09:00:00 0 6776 11.56 10.11 12.67 0 0 0
2019-04-21 10:00:00 0 7226 14.5 13.18 15.84 0 0 0
2019-04-21 11:00:00 0 7226 16.23 15.67 17.13 0 0 0
2019-04-21 12:00:00 0 7216 16.92 16.04 17.54 0 0 0
2019-04-21 13:00:00 0 7216 18.27 17.11 19.19 0 0 0
2019-04-21 14:00:00 0 7226 19.12 18.39 19.75 0 0 0
2019-04-21 15:00:00 0 7216 20.57 19.65 21.31 0 0 0
2019-04-21 16:00:00 0 7226 20.9 20.33 21.49 0 0 0
2019-04-21 17:00:00 0 7226 21 20.23 21.8 0 0 0
2019-04-21 18:00:00 0 6894 20.38 19.62 21.01 0 0 0
2019-04-21 19:00:00 0 6698 18.31 16.84 19.68 0 0 0